createdAt,value
2018-04-30T00:00:24.244Z,19.60
2018-04-30T00:02:51.211Z,19.50
2018-04-30T00:05:18.935Z,19.10
2018-04-30T00:07:45.792Z,19.10
2018-04-30T00:10:13.345Z,18.90
2018-04-30T00:12:40.264Z,18.90
2018-04-30T00:15:07.207Z,18.80
2018-04-30T00:17:34.082Z,18.60
2018-04-30T00:20:01.020Z,18.50
2018-04-30T00:22:27.944Z,18.30
2018-04-30T00:24:54.890Z,18.20
2018-04-30T00:27:21.818Z,18.20
2018-04-30T00:29:52.998Z,18.00
2018-04-30T00:32:19.882Z,18.00
2018-04-30T00:34:46.817Z,18.00
2018-04-30T00:37:13.681Z,17.90
2018-04-30T00:39:41.350Z,17.70
2018-04-30T00:42:08.964Z,17.70
2018-04-30T00:44:35.910Z,17.60
2018-04-30T00:47:02.876Z,17.60
2018-04-30T00:49:29.737Z,17.60
2018-04-30T00:51:56.651Z,17.50
2018-04-30T00:54:35.780Z,17.50
2018-04-30T00:57:02.773Z,17.50
2018-04-30T00:59:29.680Z,17.40
2018-04-30T01:01:56.551Z,17.30
2018-04-30T01:04:23.477Z,17.30
2018-04-30T01:06:50.450Z,17.30
2018-04-30T01:09:18.119Z,17.30
2018-04-30T01:11:45.798Z,17.20
2018-04-30T01:14:12.660Z,17.10
2018-04-30T01:16:39.620Z,17.20
2018-04-30T01:19:06.485Z,17.20
2018-04-30T01:21:33.428Z,17.10
2018-04-30T01:24:00.383Z,17.10
2018-04-30T01:26:27.379Z,16.90
2018-04-30T01:28:54.304Z,16.80
2018-04-30T01:31:21.954Z,16.80
2018-04-30T01:33:48.865Z,16.80
2018-04-30T01:36:15.716Z,16.70
2018-04-30T01:38:42.652Z,16.60
2018-04-30T01:41:09.557Z,16.60
2018-04-30T01:43:36.483Z,16.50
2018-04-30T01:46:03.430Z,16.50
2018-04-30T01:48:30.405Z,16.50
2018-04-30T01:50:57.365Z,16.50
2018-04-30T01:53:24.237Z,16.40
2018-04-30T01:55:51.196Z,16.40
2018-04-30T01:58:18.069Z,16.40
2018-04-30T02:00:45.764Z,16.50
2018-04-30T02:03:12.722Z,16.40
2018-04-30T02:05:39.669Z,16.40
2018-04-30T02:08:06.554Z,16.40
2018-04-30T02:10:33.502Z,16.50
2018-04-30T02:13:01.322Z,16.50
2018-04-30T02:15:28.236Z,16.40
2018-04-30T02:17:55.154Z,16.40
2018-04-30T02:20:22.004Z,16.40
2018-04-30T02:22:48.945Z,16.40
2018-04-30T02:25:15.819Z,16.40
2018-04-30T02:27:42.750Z,16.30
2018-04-30T02:30:09.684Z,16.30
2018-04-30T02:32:36.619Z,16.30
2018-04-30T02:35:03.570Z,16.20
2018-04-30T02:37:30.516Z,16.30
2018-04-30T02:39:57.377Z,16.30
2018-04-30T02:42:24.980Z,16.10
2018-04-30T02:44:51.900Z,16.20
2018-04-30T02:47:18.766Z,16.10
2018-04-30T02:49:45.731Z,15.90
2018-04-30T02:52:12.608Z,15.80
2018-04-30T02:54:39.548Z,15.70
2018-04-30T02:57:06.525Z,15.60
2018-04-30T02:59:34.122Z,15.50
2018-04-30T03:02:01.059Z,15.50
2018-04-30T03:04:28.001Z,15.40
2018-04-30T03:06:54.925Z,15.40
2018-04-30T03:09:21.804Z,15.40
2018-04-30T03:11:48.686Z,15.50
2018-04-30T03:14:15.647Z,15.50
2018-04-30T03:16:43.253Z,15.30
2018-04-30T03:19:10.189Z,15.30
2018-04-30T03:21:37.053Z,15.40
2018-04-30T03:24:04.069Z,15.30
2018-04-30T03:26:30.971Z,15.30
2018-04-30T03:28:57.842Z,15.20
2018-04-30T03:31:24.819Z,15.30
2018-04-30T03:33:51.674Z,15.30
2018-04-30T03:36:18.651Z,15.20
2018-04-30T03:38:45.535Z,15.20
2018-04-30T03:41:12.413Z,15.20
2018-04-30T03:43:39.378Z,15.10
2018-04-30T03:46:06.253Z,15.10
2018-04-30T03:48:33.194Z,15.10
2018-04-30T03:51:00.064Z,15.10
2018-04-30T03:53:26.985Z,15.10
2018-04-30T03:55:54.109Z,15.20
2018-04-30T03:58:21.047Z,15.10
2018-04-30T04:01:00.097Z,15.20
2018-04-30T04:03:39.079Z,15.20
2018-04-30T04:06:18.110Z,15.30
2018-04-30T04:08:45.112Z,15.30
2018-04-30T04:11:12.066Z,15.30
2018-04-30T04:13:39.744Z,15.40
2018-04-30T04:16:06.658Z,15.30
2018-04-30T04:18:33.647Z,15.50
2018-04-30T04:21:00.633Z,15.50
2018-04-30T04:23:27.498Z,15.50
2018-04-30T04:25:56.523Z,15.50
2018-04-30T04:28:37.940Z,15.30
2018-04-30T04:31:05.782Z,15.30
2018-04-30T04:33:32.690Z,15.30
2018-04-30T04:35:59.629Z,15.30
2018-04-30T04:38:26.569Z,15.20
2018-04-30T04:40:54.447Z,15.20
2018-04-30T04:43:21.612Z,15.10
2018-04-30T04:45:49.348Z,15.10
2018-04-30T04:48:28.472Z,15.00
2018-04-30T04:50:55.374Z,15.10
2018-04-30T04:53:27.873Z,15.10
2018-04-30T04:55:55.003Z,15.20
2018-04-30T04:58:22.630Z,15.10
2018-04-30T05:00:49.607Z,15.10
2018-04-30T05:03:17.213Z,14.90
2018-04-30T05:05:44.141Z,14.90
2018-04-30T05:08:11.010Z,14.90
2018-04-30T05:10:37.972Z,14.90
2018-04-30T05:13:04.859Z,14.90
2018-04-30T05:15:31.849Z,14.90
2018-04-30T05:17:58.838Z,14.80
2018-04-30T05:20:26.514Z,14.80
2018-04-30T05:22:53.457Z,14.80
2018-04-30T05:25:21.070Z,14.50
2018-04-30T05:27:48.015Z,14.50
2018-04-30T05:30:14.910Z,14.50
2018-04-30T05:32:42.591Z,14.50
2018-04-30T05:35:09.470Z,14.50
2018-04-30T05:37:36.398Z,14.40
2018-04-30T05:40:03.490Z,14.40
2018-04-30T05:42:30.376Z,14.40
2018-04-30T05:44:57.266Z,14.30
2018-04-30T05:47:24.217Z,14.20
2018-04-30T05:49:51.200Z,14.10
2018-04-30T05:52:18.164Z,14.10
2018-04-30T05:54:45.042Z,14.10
2018-04-30T05:57:12.062Z,14.10
2018-04-30T05:59:38.926Z,14.20
2018-04-30T06:02:05.889Z,14.20
2018-04-30T06:04:32.758Z,14.10
2018-04-30T06:06:59.693Z,14.10
2018-04-30T06:09:27.313Z,14.10
2018-04-30T06:11:54.253Z,14.10
2018-04-30T06:14:21.128Z,14.20
2018-04-30T06:16:48.050Z,14.20
2018-04-30T06:19:14.946Z,14.20
2018-04-30T06:21:42.659Z,14.40
2018-04-30T06:24:09.522Z,14.30
2018-04-30T06:26:36.491Z,14.30
2018-04-30T06:29:04.148Z,14.50
2018-04-30T06:31:31.096Z,14.50
2018-04-30T06:34:07.131Z,14.70
2018-04-30T06:36:34.069Z,14.70
2018-04-30T06:39:00.933Z,14.70
2018-04-30T06:41:27.866Z,14.80
2018-04-30T06:43:54.874Z,14.80
2018-04-30T06:46:21.824Z,14.80
2018-04-30T06:48:48.767Z,14.70
2018-04-30T06:51:15.694Z,14.70
2018-04-30T06:53:42.631Z,14.70
2018-04-30T06:56:10.250Z,14.70
2018-04-30T06:58:37.191Z,14.70
2018-04-30T07:01:04.071Z,14.60
2018-04-30T07:03:31.015Z,14.60
2018-04-30T07:05:57.885Z,14.80
2018-04-30T07:08:24.823Z,14.90
2018-04-30T07:10:51.760Z,15.10
2018-04-30T07:13:18.618Z,15.10
2018-04-30T07:15:45.573Z,15.00
2018-04-30T07:18:12.501Z,15.10
2018-04-30T07:20:39.438Z,15.10
2018-04-30T07:23:06.299Z,14.90
2018-04-30T07:25:33.909Z,15.00
2018-04-30T07:28:00.769Z,15.00
2018-04-30T07:30:27.722Z,15.10
2018-04-30T07:32:54.599Z,15.20
2018-04-30T07:35:21.530Z,15.10
2018-04-30T07:37:48.467Z,15.30
2018-04-30T07:40:15.458Z,15.30
2018-04-30T07:42:42.332Z,15.40
2018-04-30T07:45:09.295Z,15.50
2018-04-30T07:47:36.250Z,15.60
2018-04-30T07:50:03.210Z,15.70
2018-04-30T07:52:30.417Z,15.60
2018-04-30T07:54:57.266Z,15.60
2018-04-30T07:57:24.206Z,15.40
2018-04-30T07:59:51.142Z,15.40
2018-04-30T08:02:18.072Z,15.20
2018-04-30T08:04:44.936Z,15.30
2018-04-30T08:07:11.872Z,15.20
2018-04-30T08:09:38.731Z,15.40
2018-04-30T08:12:05.694Z,15.60
2018-04-30T08:14:33.013Z,15.60
2018-04-30T08:17:00.642Z,15.60
2018-04-30T08:19:27.573Z,15.60
2018-04-30T08:21:54.469Z,16.80
2018-04-30T08:24:21.391Z,16.70
2018-04-30T08:26:49.057Z,16.20
2018-04-30T08:29:15.998Z,16.20
2018-04-30T08:31:42.929Z,16.20
2018-04-30T08:34:09.802Z,15.90
2018-04-30T08:36:37.496Z,16.00
2018-04-30T08:39:05.421Z,16.00
2018-04-30T08:41:32.361Z,16.30
2018-04-30T08:43:59.248Z,16.50
2018-04-30T08:46:26.115Z,16.60
2018-04-30T08:48:53.049Z,16.60
2018-04-30T08:51:19.999Z,16.50
2018-04-30T08:53:46.871Z,16.60
2018-04-30T08:56:13.753Z,17.00
2018-04-30T08:58:41.485Z,22.00
2018-04-30T09:01:08.347Z,21.90
2018-04-30T09:03:35.279Z,24.80
2018-04-30T09:06:02.202Z,22.90
2018-04-30T09:08:29.139Z,23.60
2018-04-30T09:10:56.081Z,23.50
2018-04-30T09:13:23.069Z,24.10
2018-04-30T09:15:50.002Z,23.00
2018-04-30T09:18:16.870Z,22.00
2018-04-30T09:20:43.903Z,20.20
2018-04-30T09:23:10.770Z,19.70
2018-04-30T09:25:38.442Z,19.80
2018-04-30T09:28:06.068Z,20.50
2018-04-30T09:30:33.006Z,20.50
2018-04-30T09:32:59.873Z,21.30
2018-04-30T09:35:26.763Z,20.90
2018-04-30T09:37:53.688Z,22.20
2018-04-30T09:40:20.548Z,21.50
2018-04-30T09:42:47.484Z,21.30
2018-04-30T09:45:14.437Z,22.90
2018-04-30T09:47:41.293Z,22.80
2018-04-30T09:50:08.184Z,23.00
2018-04-30T09:52:36.091Z,23.20
2018-04-30T09:55:03.864Z,22.70
2018-04-30T09:57:32.077Z,22.20
2018-04-30T09:59:58.994Z,21.80
2018-04-30T10:02:25.933Z,21.00
2018-04-30T10:04:52.818Z,20.30
2018-04-30T10:07:19.809Z,20.00
2018-04-30T10:09:46.691Z,19.50
2018-04-30T10:12:13.633Z,19.30
2018-04-30T10:14:40.481Z,19.00
2018-04-30T10:17:07.410Z,18.90
2018-04-30T10:19:34.284Z,19.00
2018-04-30T10:22:01.217Z,18.80
2018-04-30T10:24:28.074Z,18.90
2018-04-30T10:26:54.999Z,18.90
2018-04-30T10:29:21.879Z,19.20
2018-04-30T10:31:48.813Z,19.40
2018-04-30T10:34:15.713Z,19.30
2018-04-30T10:36:42.656Z,19.30
2018-04-30T10:39:09.591Z,19.10
2018-04-30T10:41:37.201Z,19.30
2018-04-30T10:44:04.226Z,19.30
2018-04-30T10:46:31.098Z,19.60
2018-04-30T10:48:58.053Z,20.00
2018-04-30T10:51:24.922Z,19.80
2018-04-30T10:53:52.632Z,19.30
2018-04-30T10:56:19.574Z,19.30
2018-04-30T10:58:46.447Z,19.20
2018-04-30T11:01:13.385Z,19.10
2018-04-30T11:03:41.268Z,18.90
2018-04-30T11:06:08.190Z,18.90
2018-04-30T11:08:35.046Z,18.80
2018-04-30T11:11:01.992Z,18.90
2018-04-30T11:13:28.998Z,18.80
2018-04-30T11:15:56.677Z,19.80
2018-04-30T11:18:23.554Z,19.80
2018-04-30T11:20:50.494Z,20.10
2018-04-30T11:23:17.377Z,20.20
2018-04-30T11:25:45.055Z,21.20
2018-04-30T11:28:12.805Z,21.10
2018-04-30T11:30:39.762Z,21.10
2018-04-30T11:33:06.710Z,21.10
2018-04-30T11:35:33.655Z,20.80
2018-04-30T11:38:01.580Z,20.20
2018-04-30T11:40:28.482Z,20.40
2018-04-30T11:42:55.455Z,20.70
2018-04-30T11:45:22.402Z,20.60
2018-04-30T11:47:50.142Z,20.60
2018-04-30T11:50:17.092Z,20.60
2018-04-30T11:52:44.026Z,20.80
2018-04-30T11:55:11.001Z,21.00
2018-04-30T11:57:37.974Z,21.10
2018-04-30T12:00:05.206Z,21.80
2018-04-30T12:02:33.633Z,22.40
2018-04-30T12:05:07.937Z,22.40
2018-04-30T12:07:35.438Z,22.20
2018-04-30T12:10:02.353Z,21.90
2018-04-30T12:12:29.321Z,21.40
2018-04-30T12:14:56.266Z,20.90
2018-04-30T12:17:26.455Z,20.80
2018-04-30T12:19:53.397Z,20.70
2018-04-30T12:22:27.882Z,20.80
2018-04-30T12:25:00.034Z,20.70
2018-04-30T12:27:26.983Z,20.80
2018-04-30T12:29:53.925Z,20.70
2018-04-30T12:32:21.148Z,20.80
2018-04-30T12:34:48.814Z,20.70
2018-04-30T12:37:15.801Z,20.70
2018-04-30T12:39:42.680Z,20.10
2018-04-30T12:42:09.639Z,19.90
2018-04-30T12:44:36.848Z,19.80
2018-04-30T12:47:11.354Z,19.80
2018-04-30T12:49:39.339Z,19.60
2018-04-30T12:52:12.132Z,19.70
2018-04-30T12:54:39.529Z,19.60
2018-04-30T12:57:06.542Z,19.30
2018-04-30T12:59:33.539Z,19.40
2018-04-30T13:02:00.466Z,19.70
2018-04-30T13:04:27.370Z,19.70
2018-04-30T13:06:54.302Z,20.30
2018-04-30T13:09:21.175Z,20.50
2018-04-30T13:11:48.114Z,20.30
2018-04-30T13:14:14.975Z,20.10
2018-04-30T13:16:41.945Z,19.90
2018-04-30T13:19:08.803Z,20.10
2018-04-30T13:21:35.674Z,20.20
2018-04-30T13:24:02.678Z,20.10
2018-04-30T13:26:29.555Z,20.80
2018-04-30T13:28:57.227Z,21.00
2018-04-30T13:31:24.182Z,21.00
2018-04-30T13:33:51.111Z,21.30
2018-04-30T13:36:25.408Z,21.30
2018-04-30T13:38:54.728Z,21.10
2018-04-30T13:41:22.418Z,21.30
2018-04-30T13:43:52.731Z,21.20
2018-04-30T13:46:19.679Z,21.30
2018-04-30T13:48:46.617Z,21.20
2018-04-30T13:51:13.571Z,21.10
2018-04-30T13:53:41.298Z,21.00
2018-04-30T13:56:09.779Z,20.80
2018-04-30T13:58:37.999Z,20.80
2018-04-30T14:01:05.881Z,20.90
2018-04-30T14:03:34.765Z,20.90
2018-04-30T14:06:03.937Z,20.90
2018-04-30T14:08:30.954Z,20.90
2018-04-30T14:10:57.959Z,21.50
2018-04-30T14:13:24.875Z,21.20
2018-04-30T14:15:54.923Z,20.80
2018-04-30T14:18:23.380Z,20.80
2018-04-30T14:20:52.201Z,20.80
2018-04-30T14:23:20.513Z,20.70
2018-04-30T14:25:49.095Z,20.80
2018-04-30T14:28:17.494Z,20.40
2018-04-30T14:30:45.989Z,19.90
2018-04-30T14:33:15.057Z,19.60
2018-04-30T14:35:43.573Z,19.60
2018-04-30T14:38:12.645Z,19.50
2018-04-30T14:40:41.102Z,19.50
2018-04-30T14:43:09.499Z,19.90
2018-04-30T14:45:51.234Z,19.60
2018-04-30T14:48:21.672Z,19.80
2018-04-30T14:50:52.709Z,20.10
2018-04-30T14:53:29.520Z,20.10
2018-04-30T14:55:59.861Z,20.20
2018-04-30T14:58:32.123Z,20.60
2018-04-30T15:01:03.541Z,20.40
2018-04-30T15:03:32.872Z,20.50
2018-04-30T15:06:01.264Z,20.50
2018-04-30T15:08:31.363Z,20.70
2018-04-30T15:10:59.864Z,20.60
2018-04-30T15:13:29.287Z,20.40
2018-04-30T15:15:59.168Z,20.20
2018-04-30T15:18:27.662Z,20.00
2018-04-30T15:21:04.759Z,19.70
2018-04-30T15:23:34.231Z,19.80
2018-04-30T15:26:05.389Z,19.60
2018-04-30T15:28:42.422Z,19.70
2018-04-30T15:31:20.434Z,19.60
2018-04-30T15:33:53.313Z,19.60
2018-04-30T15:36:34.201Z,19.40
2018-04-30T15:39:07.880Z,19.40
2018-04-30T15:41:40.511Z,19.50
2018-04-30T15:44:12.671Z,19.30
2018-04-30T15:46:41.106Z,19.40
2018-04-30T15:49:08.905Z,19.20
2018-04-30T15:51:35.830Z,19.20
2018-04-30T15:54:03.467Z,19.20
2018-04-30T15:56:39.436Z,19.30
2018-04-30T15:59:16.825Z,19.10
2018-04-30T16:01:44.250Z,19.20
2018-04-30T16:04:11.250Z,19.00
2018-04-30T16:06:38.889Z,19.00
2018-04-30T16:09:06.577Z,19.00
2018-04-30T16:11:33.530Z,19.00
2018-04-30T16:14:00.584Z,19.00
2018-04-30T16:16:27.558Z,19.10
2018-04-30T16:18:54.455Z,19.30
2018-04-30T16:21:22.151Z,19.10
2018-04-30T16:23:49.107Z,19.10
2018-04-30T16:26:16.888Z,19.30
2018-04-30T16:28:43.879Z,19.00
2018-04-30T16:31:13.871Z,18.60
2018-04-30T16:33:43.438Z,18.60
2018-04-30T16:36:10.537Z,18.50
2018-04-30T16:38:37.494Z,18.10
2018-04-30T16:41:05.221Z,17.80
2018-04-30T16:43:32.819Z,17.80
2018-04-30T16:46:00.844Z,17.30
2018-04-30T16:48:27.800Z,17.10
2018-04-30T16:51:06.332Z,16.70
2018-04-30T16:53:46.387Z,16.60
2018-04-30T16:56:25.250Z,16.60
2018-04-30T16:58:59.695Z,16.70
2018-04-30T17:01:40.881Z,16.80
2018-04-30T17:04:18.865Z,16.80
2018-04-30T17:06:46.453Z,17.10
2018-04-30T17:09:13.323Z,17.20
2018-04-30T17:11:40.190Z,17.40
2018-04-30T17:14:07.118Z,17.50
2018-04-30T17:16:34.059Z,17.60
2018-04-30T17:19:01.006Z,17.70
2018-04-30T17:21:27.912Z,17.60
2018-04-30T17:23:54.836Z,17.70
2018-04-30T17:26:21.694Z,17.70
2018-04-30T17:28:48.629Z,17.50
2018-04-30T17:31:16.299Z,17.10
2018-04-30T17:33:43.269Z,17.10
2018-04-30T17:36:10.234Z,17.00
2018-04-30T17:38:37.155Z,16.70
2018-04-30T17:41:04.113Z,16.60
2018-04-30T17:43:31.006Z,16.60
2018-04-30T17:45:57.916Z,16.40
2018-04-30T17:48:24.848Z,16.30
2018-04-30T17:50:51.846Z,16.20
2018-04-30T17:53:18.713Z,16.30
2018-04-30T17:55:45.573Z,16.10
2018-04-30T17:58:12.517Z,16.10
2018-04-30T18:00:39.458Z,16.00
2018-04-30T18:03:07.438Z,15.90
2018-04-30T18:05:34.394Z,15.80
2018-04-30T18:08:01.271Z,15.70
2018-04-30T18:10:28.213Z,15.70
2018-04-30T18:12:55.255Z,15.60
2018-04-30T18:15:22.165Z,15.40
2018-04-30T18:17:49.110Z,15.30
2018-04-30T18:20:16.034Z,15.20
2018-04-30T18:22:43.657Z,15.20
2018-04-30T18:25:10.591Z,15.10
2018-04-30T18:27:37.482Z,15.10
2018-04-30T18:30:05.224Z,14.90
2018-04-30T18:32:32.111Z,14.90
2018-04-30T18:34:59.055Z,14.80
2018-04-30T18:37:25.920Z,14.80
2018-04-30T18:39:52.878Z,14.80
2018-04-30T18:42:22.058Z,14.70
2018-04-30T18:44:49.087Z,14.60
2018-04-30T18:47:16.025Z,14.50
2018-04-30T18:49:44.247Z,14.50
2018-04-30T18:52:11.204Z,14.50
2018-04-30T18:54:38.100Z,14.40
2018-04-30T18:57:10.498Z,14.40
2018-04-30T18:59:37.769Z,14.40
2018-04-30T19:02:04.850Z,14.40
2018-04-30T19:04:37.433Z,14.30
2018-04-30T19:07:04.843Z,14.30
2018-04-30T19:09:31.785Z,14.20
2018-04-30T19:11:58.660Z,14.10
2018-04-30T19:14:26.391Z,14.10
2018-04-30T19:16:54.137Z,14.10
2018-04-30T19:19:21.114Z,14.10
2018-04-30T19:21:48.049Z,14.10
2018-04-30T19:24:14.931Z,14.20
2018-04-30T19:26:41.870Z,14.20
2018-04-30T19:29:08.740Z,14.10
2018-04-30T19:31:36.413Z,14.00
2018-04-30T19:34:04.022Z,14.00
2018-04-30T19:36:30.958Z,14.00
2018-04-30T19:38:57.881Z,14.00
2018-04-30T19:41:25.502Z,13.90
2018-04-30T19:43:52.452Z,13.90
2018-04-30T19:46:19.403Z,13.90
2018-04-30T19:48:46.347Z,13.90
2018-04-30T19:51:13.211Z,13.90
2018-04-30T19:53:44.424Z,13.90
2018-04-30T19:56:13.360Z,13.90
2018-04-30T19:58:48.709Z,13.90
2018-04-30T20:01:16.059Z,13.90
2018-04-30T20:03:43.798Z,13.80
2018-04-30T20:06:12.757Z,13.80
2018-04-30T20:08:39.625Z,13.80
2018-04-30T20:11:16.395Z,13.70
2018-04-30T20:13:45.027Z,13.60
2018-04-30T20:16:16.432Z,13.70
2018-04-30T20:18:43.936Z,13.70
2018-04-30T20:21:11.258Z,13.70
2018-04-30T20:23:38.193Z,13.50
2018-04-30T20:26:06.596Z,13.60
2018-04-30T20:28:35.169Z,13.60
2018-04-30T20:31:09.989Z,13.50
2018-04-30T20:33:39.009Z,13.50
2018-04-30T20:36:06.029Z,13.40
2018-04-30T20:38:32.982Z,13.40
2018-04-30T20:41:01.571Z,13.40
2018-04-30T20:43:28.928Z,13.40
2018-04-30T20:45:56.019Z,13.40
2018-04-30T20:48:22.905Z,13.30
2018-04-30T20:50:50.539Z,13.30
2018-04-30T20:53:18.730Z,13.20
2018-04-30T20:55:45.909Z,13.20
2018-04-30T20:58:12.907Z,13.20
2018-04-30T21:00:39.944Z,13.10
2018-04-30T21:03:06.940Z,13.10
2018-04-30T21:05:34.022Z,13.00
2018-04-30T21:08:01.039Z,13.00
2018-04-30T21:10:27.933Z,13.00
2018-04-30T21:12:54.878Z,12.90
2018-04-30T21:15:21.833Z,12.90
2018-04-30T21:17:48.795Z,12.70
2018-04-30T21:20:16.602Z,12.90
2018-04-30T21:22:43.550Z,12.80
2018-04-30T21:25:10.461Z,12.80
2018-04-30T21:27:37.445Z,12.80
2018-04-30T21:30:04.358Z,12.80
2018-04-30T21:32:31.316Z,12.80
2018-04-30T21:34:59.550Z,12.90
2018-04-30T21:37:27.530Z,12.80
2018-04-30T21:39:55.760Z,12.70
2018-04-30T21:42:23.678Z,12.70
2018-04-30T21:44:52.658Z,12.70
2018-04-30T21:47:22.976Z,12.60
2018-04-30T21:49:51.199Z,12.60
2018-04-30T21:52:20.124Z,12.60
2018-04-30T21:54:47.104Z,12.60
2018-04-30T21:57:14.035Z,12.60
2018-04-30T21:59:40.899Z,12.50
2018-04-30T22:02:07.833Z,12.60
2018-04-30T22:04:36.170Z,12.60
2018-04-30T22:07:03.970Z,12.60
2018-04-30T22:09:30.929Z,12.50
2018-04-30T22:11:57.897Z,12.30
2018-04-30T22:14:25.200Z,12.10
2018-04-30T22:16:52.342Z,12.10
2018-04-30T22:19:19.462Z,11.90
2018-04-30T22:21:46.487Z,11.80
2018-04-30T22:24:14.319Z,11.80
2018-04-30T22:26:41.258Z,11.80
2018-04-30T22:29:09.011Z,11.80
2018-04-30T22:31:35.942Z,11.80
2018-04-30T22:34:03.627Z,11.80
2018-04-30T22:36:31.594Z,11.80
2018-04-30T22:38:58.539Z,11.70
2018-04-30T22:41:25.486Z,11.70
2018-04-30T22:43:53.707Z,11.60
2018-04-30T22:46:21.502Z,11.60
2018-04-30T22:48:49.067Z,11.60
2018-04-30T22:51:17.112Z,11.50
2018-04-30T22:53:45.229Z,11.50
2018-04-30T22:56:12.290Z,11.50
2018-04-30T22:58:39.238Z,11.20
2018-04-30T23:01:06.128Z,11.30
2018-04-30T23:03:33.082Z,11.40
2018-04-30T23:06:00.989Z,11.30
2018-04-30T23:08:28.436Z,11.30
2018-04-30T23:10:56.736Z,11.30
2018-04-30T23:13:25.369Z,11.30
2018-04-30T23:15:52.513Z,11.30
2018-04-30T23:18:19.395Z,11.20
2018-04-30T23:20:46.456Z,11.20
2018-04-30T23:23:13.346Z,11.10
2018-04-30T23:25:40.296Z,11.20
2018-04-30T23:28:07.154Z,11.20
2018-04-30T23:30:34.078Z,11.20
2018-04-30T23:33:01.101Z,11.20
2018-04-30T23:35:28.769Z,11.10
2018-04-30T23:37:55.641Z,11.00
2018-04-30T23:40:22.576Z,11.10
2018-04-30T23:42:49.539Z,11.10
2018-04-30T23:45:16.417Z,11.10
2018-04-30T23:47:43.357Z,11.00
2018-04-30T23:50:10.227Z,10.90
2018-04-30T23:52:37.169Z,11.00
2018-04-30T23:55:04.184Z,11.00
2018-04-30T23:57:31.082Z,10.90
2018-04-30T23:59:58.763Z,10.90
